createdAt,value
2023-02-03T00:00:00.845Z,4.60
2023-02-03T00:02:27.776Z,4.97
2023-02-03T00:04:54.685Z,4.50
2023-02-03T00:07:22.493Z,4.10
2023-02-03T00:09:49.602Z,4.28
2023-02-03T00:12:16.628Z,4.38
2023-02-03T00:14:43.539Z,4.65
2023-02-03T00:17:10.484Z,4.60
2023-02-03T00:19:37.459Z,4.80
2023-02-03T00:22:04.360Z,4.50
2023-02-03T00:24:31.297Z,4.88
2023-02-03T00:26:58.240Z,4.65
2023-02-03T00:29:26.069Z,4.88
2023-02-03T00:31:54.153Z,4.40
2023-02-03T00:34:21.802Z,5.18
2023-02-03T00:36:49.034Z,4.72
2023-02-03T00:39:16.851Z,5.70
2023-02-03T00:41:43.896Z,5.40
2023-02-03T00:44:11.368Z,5.78
2023-02-03T00:46:38.379Z,5.50
2023-02-03T00:49:06.012Z,5.32
2023-02-03T00:51:34.477Z,5.47
2023-02-03T00:54:01.550Z,5.03
2023-02-03T00:56:29.936Z,5.40
2023-02-03T00:58:56.878Z,5.47
2023-02-03T01:01:23.905Z,4.80
2023-02-03T01:03:50.918Z,5.15
2023-02-03T01:06:20.653Z,4.60
2023-02-03T01:08:49.080Z,4.60
2023-02-03T01:11:25.533Z,4.82
2023-02-03T01:13:56.684Z,4.70
2023-02-03T01:16:25.640Z,4.30
2023-02-03T01:18:54.717Z,3.97
2023-02-03T01:21:26.530Z,4.07
2023-02-03T01:23:55.324Z,3.70
2023-02-03T01:26:24.325Z,4.20
2023-02-03T01:28:58.460Z,4.30
2023-02-03T01:31:35.227Z,3.38
2023-02-03T01:34:03.517Z,3.63
2023-02-03T01:36:32.912Z,3.30
2023-02-03T01:39:04.731Z,3.67
2023-02-03T01:41:36.250Z,3.20
2023-02-03T01:44:52.389Z,3.13
2023-02-03T01:47:48.412Z,3.50
2023-02-03T01:50:21.685Z,3.13
2023-02-03T01:52:57.863Z,2.70
2023-02-03T01:55:33.887Z,2.78
2023-02-03T01:58:17.753Z,3.05
2023-02-03T02:00:48.040Z,3.10
2023-02-03T02:03:24.297Z,2.60
2023-02-03T02:06:08.688Z,2.72
2023-02-03T02:08:46.123Z,2.72
2023-02-03T02:11:13.702Z,2.60
2023-02-03T02:13:44.608Z,2.85
2023-02-03T02:16:47.322Z,2.60
2023-02-03T02:19:59.264Z,2.53
2023-02-03T02:23:00.568Z,2.03
2023-02-03T02:25:55.372Z,2.10
2023-02-03T02:29:09.931Z,2.20
2023-02-03T02:32:11.093Z,2.13
2023-02-03T02:35:09.529Z,1.90
2023-02-03T02:38:15.652Z,2.55
2023-02-03T02:41:00.848Z,2.05
2023-02-03T02:43:42.203Z,2.28
2023-02-03T02:46:37.969Z,1.85
2023-02-03T02:49:41.207Z,1.95
2023-02-03T02:52:11.202Z,2.30
2023-02-03T02:54:45.148Z,2.28
2023-02-03T02:57:18.184Z,2.38
2023-02-03T02:59:47.953Z,2.17
2023-02-03T03:02:15.006Z,1.85
2023-02-03T03:04:44.476Z,1.90
2023-02-03T03:07:21.013Z,1.65
2023-02-03T03:09:58.129Z,2.42
2023-02-03T03:12:35.995Z,1.67
2023-02-03T03:15:22.301Z,1.90
2023-02-03T03:18:33.340Z,1.80
2023-02-03T03:21:08.839Z,1.70
2023-02-03T03:23:42.610Z,1.92
2023-02-03T03:26:21.306Z,1.92
2023-02-03T03:29:10.400Z,1.75
2023-02-03T03:31:39.347Z,1.67
2023-02-03T03:34:09.423Z,1.80
2023-02-03T03:36:53.597Z,1.50
2023-02-03T03:39:42.931Z,1.67
2023-02-03T03:43:01.300Z,1.70
2023-02-03T03:45:55.851Z,1.80
2023-02-03T03:48:40.621Z,1.85
2023-02-03T03:53:45.005Z,1.73
2023-02-03T03:56:24.365Z,1.35
2023-02-03T03:58:53.964Z,1.70
2023-02-03T04:01:23.997Z,1.70
2023-02-03T04:03:58.498Z,1.73
2023-02-03T04:06:25.628Z,1.80
2023-02-03T04:08:52.651Z,2.00
2023-02-03T04:11:40.437Z,1.65
2023-02-03T04:14:07.378Z,1.85
2023-02-03T04:16:34.402Z,1.80
2023-02-03T04:19:01.393Z,1.88
2023-02-03T04:21:28.333Z,1.73
2023-02-03T04:23:56.588Z,1.50
2023-02-03T04:26:24.382Z,1.60
2023-02-03T04:28:51.372Z,1.75
2023-02-03T04:31:18.404Z,1.13
2023-02-03T04:33:45.442Z,1.40
2023-02-03T04:36:12.358Z,1.63
2023-02-03T04:38:39.236Z,1.60
2023-02-03T04:41:06.143Z,1.40
2023-02-03T04:43:33.080Z,1.35
2023-02-03T04:46:01.215Z,1.70
2023-02-03T04:48:28.450Z,1.40
2023-02-03T04:50:55.325Z,1.30
2023-02-03T04:53:22.295Z,1.30
2023-02-03T04:55:49.271Z,1.10
2023-02-03T04:58:16.237Z,1.02
2023-02-03T05:00:43.259Z,1.02
2023-02-03T05:03:10.269Z,1.10
2023-02-03T05:05:37.270Z,1.42
2023-02-03T05:08:04.513Z,1.30
2023-02-03T05:10:31.847Z,1.58
2023-02-03T05:12:58.889Z,1.00
2023-02-03T05:15:26.084Z,1.42
2023-02-03T05:17:55.433Z,1.23
2023-02-03T05:20:22.518Z,1.00
2023-02-03T05:22:49.427Z,1.17
2023-02-03T05:25:16.395Z,1.40
2023-02-03T05:27:43.625Z,1.33
2023-02-03T05:30:13.963Z,1.20
2023-02-03T05:32:40.912Z,1.10
2023-02-03T05:35:08.287Z,1.10
2023-02-03T05:37:35.298Z,1.10
2023-02-03T05:40:28.594Z,0.80
2023-02-03T05:42:55.750Z,1.38
2023-02-03T05:45:22.676Z,1.40
2023-02-03T05:47:49.584Z,1.30
2023-02-03T05:50:16.648Z,0.90
2023-02-03T05:52:43.800Z,1.30
2023-02-03T05:55:10.755Z,1.40
2023-02-03T05:57:37.692Z,1.05
2023-02-03T06:00:07.267Z,1.10
2023-02-03T06:02:38.578Z,1.25
2023-02-03T06:05:06.140Z,1.25
2023-02-03T06:07:33.105Z,1.13
2023-02-03T06:09:59.997Z,1.10
2023-02-03T06:12:28.360Z,1.40
2023-02-03T06:14:56.307Z,0.90
2023-02-03T06:17:25.568Z,0.90
2023-02-03T06:19:54.793Z,1.33
2023-02-03T06:22:21.771Z,1.08
2023-02-03T06:24:48.797Z,1.38
2023-02-03T06:27:21.090Z,1.10
2023-02-03T06:29:48.328Z,1.00
2023-02-03T06:32:15.339Z,1.42
2023-02-03T06:34:42.689Z,1.02
2023-02-03T06:37:09.817Z,1.13
2023-02-03T06:39:36.966Z,1.55
2023-02-03T06:42:06.731Z,1.60
2023-02-03T06:44:33.738Z,1.60
2023-02-03T06:47:02.860Z,1.30
2023-02-03T06:49:30.116Z,1.30
2023-02-03T06:51:57.036Z,1.48
2023-02-03T06:54:23.995Z,1.25
2023-02-03T06:56:50.946Z,1.40
2023-02-03T06:59:20.982Z,1.67
2023-02-03T07:01:47.957Z,1.30
2023-02-03T07:04:21.296Z,1.40
2023-02-03T07:06:48.316Z,1.60
2023-02-03T07:09:15.499Z,1.45
2023-02-03T07:11:45.385Z,1.38
2023-02-03T07:14:12.563Z,1.50
2023-02-03T07:16:39.478Z,1.52
2023-02-03T07:19:07.072Z,2.13
2023-02-03T07:21:34.179Z,1.73
2023-02-03T07:24:02.899Z,1.40
2023-02-03T07:26:29.951Z,1.45
2023-02-03T07:28:59.944Z,1.83
2023-02-03T07:31:26.979Z,1.35
2023-02-03T07:33:54.169Z,1.50
2023-02-03T07:36:21.072Z,1.52
2023-02-03T07:38:48.011Z,1.60
2023-02-03T07:41:17.618Z,1.80
2023-02-03T07:43:45.012Z,1.67
2023-02-03T07:46:14.371Z,1.63
2023-02-03T07:48:41.342Z,1.65
2023-02-03T07:51:08.387Z,1.58
2023-02-03T07:53:35.402Z,1.70
2023-02-03T07:56:06.926Z,1.77
2023-02-03T07:58:33.865Z,1.70
2023-02-03T08:01:00.986Z,2.08
2023-02-03T08:03:30.420Z,1.80
2023-02-03T08:05:57.349Z,2.17
2023-02-03T08:08:27.424Z,2.05
2023-02-03T08:10:56.496Z,1.80
2023-02-03T08:13:23.549Z,1.42
2023-02-03T08:15:50.578Z,2.10
2023-02-03T08:18:17.530Z,2.20
2023-02-03T08:20:44.452Z,2.00
2023-02-03T08:23:12.260Z,1.90
2023-02-03T08:25:39.243Z,2.17
2023-02-03T08:28:06.127Z,2.25
2023-02-03T08:30:33.377Z,2.40
2023-02-03T08:33:00.318Z,2.80
2023-02-03T08:35:30.688Z,3.22
2023-02-03T08:37:57.660Z,4.35
2023-02-03T08:40:24.585Z,7.03
2023-02-03T08:42:51.614Z,7.32
2023-02-03T08:45:18.810Z,9.80
2023-02-03T08:47:45.837Z,8.05
2023-02-03T08:50:13.621Z,9.15
2023-02-03T08:52:40.961Z,9.57
2023-02-03T08:55:08.245Z,7.57
2023-02-03T08:57:36.622Z,4.95
2023-02-03T09:00:06.298Z,4.90
2023-02-03T09:02:33.365Z,4.80
2023-02-03T09:05:01.068Z,4.65
2023-02-03T09:07:28.345Z,5.28
2023-02-03T09:09:55.266Z,5.95
2023-02-03T09:12:22.216Z,5.15
2023-02-03T09:14:49.241Z,4.20
2023-02-03T09:17:16.561Z,3.67
2023-02-03T09:19:43.576Z,3.58
2023-02-03T09:22:10.533Z,3.72
2023-02-03T09:24:37.725Z,2.65
2023-02-03T09:27:04.702Z,2.70
2023-02-03T09:29:31.660Z,2.00
2023-02-03T09:31:58.709Z,2.72
2023-02-03T09:34:25.738Z,2.58
2023-02-03T09:36:52.849Z,2.42
2023-02-03T09:39:19.871Z,2.08
2023-02-03T09:42:10.406Z,2.70
2023-02-03T09:45:19.573Z,2.67
2023-02-03T09:47:53.878Z,2.40
2023-02-03T09:50:26.601Z,2.83
2023-02-03T09:52:56.193Z,2.58
2023-02-03T09:55:41.153Z,2.30
2023-02-03T09:58:14.256Z,2.83
2023-02-03T10:00:54.225Z,3.05
2023-02-03T10:03:42.625Z,2.25
2023-02-03T10:06:45.576Z,2.65
2023-02-03T10:09:27.671Z,2.72
2023-02-03T10:12:11.460Z,2.17
2023-02-03T10:14:57.251Z,2.75
2023-02-03T10:17:48.344Z,2.03
2023-02-03T10:20:35.815Z,2.20
2023-02-03T10:23:12.926Z,2.88
2023-02-03T10:25:50.769Z,2.40
2023-02-03T10:28:28.057Z,1.98
2023-02-03T10:31:02.043Z,2.45
2023-02-03T10:33:31.931Z,1.90
2023-02-03T10:36:21.640Z,2.33
2023-02-03T10:38:48.612Z,2.25
2023-02-03T10:41:20.644Z,2.40
2023-02-03T10:43:52.061Z,2.50
2023-02-03T10:46:27.965Z,2.25
2023-02-03T10:48:55.906Z,2.13
2023-02-03T10:51:27.114Z,2.10
2023-02-03T10:53:54.299Z,2.67
2023-02-03T10:56:36.458Z,2.47
2023-02-03T10:59:05.032Z,2.45
2023-02-03T11:01:46.810Z,2.13
2023-02-03T11:04:33.151Z,2.00
2023-02-03T11:07:08.174Z,2.50
2023-02-03T11:09:41.142Z,1.70
2023-02-03T11:12:16.309Z,2.22
2023-02-03T11:14:49.377Z,2.20
2023-02-03T11:17:29.737Z,2.10
2023-02-03T11:20:17.316Z,1.95
2023-02-03T11:22:45.443Z,2.42
2023-02-03T11:25:22.412Z,3.28
2023-02-03T11:27:49.476Z,1.80
2023-02-03T11:30:25.459Z,2.72
2023-02-03T11:32:53.625Z,2.50
2023-02-03T11:35:30.912Z,2.75
2023-02-03T11:38:01.226Z,2.00
2023-02-03T11:40:34.287Z,3.10
2023-02-03T11:43:18.102Z,2.00
2023-02-03T11:45:50.619Z,2.23
2023-02-03T11:48:31.855Z,2.40
2023-02-03T11:51:05.830Z,1.98
2023-02-03T11:54:06.578Z,2.40
2023-02-03T11:57:24.320Z,1.90
2023-02-03T12:00:14.763Z,2.35
2023-02-03T12:03:15.723Z,2.85
2023-02-03T12:06:19.679Z,1.92
2023-02-03T12:09:17.841Z,2.10
2023-02-03T12:11:59.988Z,2.20
2023-02-03T12:14:49.435Z,2.72
2023-02-03T12:18:15.101Z,2.53
2023-02-03T12:21:21.913Z,2.85
2023-02-03T12:24:06.932Z,2.47
2023-02-03T12:27:05.960Z,2.55
2023-02-03T12:29:43.960Z,2.40
2023-02-03T12:32:46.491Z,2.55
2023-02-03T12:35:24.132Z,2.13
2023-02-03T12:38:10.406Z,2.28
2023-02-03T12:40:49.407Z,2.55
2023-02-03T12:43:40.160Z,2.10
2023-02-03T12:46:44.871Z,2.10
2023-02-03T12:49:38.801Z,2.25
2023-02-03T12:52:11.497Z,1.80
2023-02-03T12:55:01.219Z,2.40
2023-02-03T12:57:43.195Z,1.88
2023-02-03T13:00:27.517Z,1.70
2023-02-03T13:03:16.486Z,1.92
2023-02-03T13:06:17.654Z,1.90
2023-02-03T13:08:55.036Z,2.20
2023-02-03T13:11:54.711Z,1.85
2023-02-03T13:14:32.892Z,1.73
2023-02-03T13:17:30.731Z,1.40
2023-02-03T13:20:15.700Z,1.98
2023-02-03T13:22:42.676Z,1.30
2023-02-03T13:25:29.391Z,1.60
2023-02-03T13:28:37.947Z,1.70
2023-02-03T13:31:32.329Z,1.83
2023-02-03T13:34:30.429Z,2.42
2023-02-03T13:37:03.669Z,2.08
2023-02-03T13:39:39.622Z,1.75
2023-02-03T13:42:19.037Z,2.00
2023-02-03T13:44:52.647Z,1.90
2023-02-03T13:47:30.058Z,1.90
2023-02-03T13:50:03.222Z,2.05
2023-02-03T13:52:42.414Z,2.00
2023-02-03T13:55:30.903Z,1.92
2023-02-03T13:57:58.687Z,2.38
2023-02-03T14:00:44.046Z,2.25
2023-02-03T14:03:38.713Z,2.40
2023-02-03T14:06:39.556Z,2.38
2023-02-03T14:09:35.583Z,2.03
2023-02-03T14:12:32.389Z,2.42
2023-02-03T14:15:17.487Z,1.80
2023-02-03T14:17:44.398Z,2.47
2023-02-03T14:20:26.768Z,2.28
2023-02-03T14:22:57.843Z,2.75
2023-02-03T14:25:27.909Z,2.20
2023-02-03T14:28:07.765Z,2.83
2023-02-03T14:31:07.620Z,2.42
2023-02-03T14:33:58.532Z,2.67
2023-02-03T14:36:55.339Z,2.33
2023-02-03T14:40:07.241Z,2.95
2023-02-03T14:43:22.238Z,2.47
2023-02-03T14:46:24.514Z,2.30
2023-02-03T14:49:30.213Z,2.40
2023-02-03T14:52:22.806Z,2.08
2023-02-03T14:55:15.694Z,1.92
2023-02-03T14:57:55.549Z,2.13
2023-02-03T15:00:27.901Z,2.40
2023-02-03T15:03:08.916Z,2.70
2023-02-03T15:05:44.889Z,2.50
2023-02-03T15:08:59.909Z,2.00
2023-02-03T15:11:34.593Z,2.53
2023-02-03T15:14:23.656Z,2.58
2023-02-03T15:16:58.297Z,2.03
2023-02-03T15:19:33.458Z,2.53
2023-02-03T15:22:01.779Z,2.65
2023-02-03T15:24:37.062Z,2.20
2023-02-03T15:27:04.096Z,2.70
2023-02-03T15:29:34.164Z,2.53
2023-02-03T15:32:17.257Z,3.17
2023-02-03T15:34:49.685Z,2.55
2023-02-03T15:37:56.455Z,2.40
2023-02-03T15:40:35.452Z,2.58
2023-02-03T15:43:15.973Z,2.65
2023-02-03T15:46:13.160Z,3.00
2023-02-03T15:48:53.650Z,2.65
2023-02-03T15:51:48.260Z,3.17
2023-02-03T15:54:30.446Z,2.35
2023-02-03T15:57:05.628Z,2.47
2023-02-03T15:59:40.922Z,3.55
2023-02-03T16:02:31.044Z,3.08
2023-02-03T16:05:10.920Z,3.03
2023-02-03T16:07:37.893Z,3.17
2023-02-03T16:10:05.660Z,2.80
2023-02-03T16:12:34.278Z,2.38
2023-02-03T16:15:01.998Z,3.10
2023-02-03T16:17:33.839Z,2.50
2023-02-03T16:20:23.326Z,2.70
2023-02-03T16:23:18.026Z,2.22
2023-02-03T16:26:18.552Z,3.42
2023-02-03T16:29:30.291Z,2.90
2023-02-03T16:32:16.682Z,2.72
2023-02-03T16:35:02.481Z,3.08
2023-02-03T16:38:03.093Z,3.45
2023-02-03T16:40:48.970Z,2.20
2023-02-03T16:43:35.525Z,3.05
2023-02-03T16:46:21.455Z,3.92
2023-02-03T16:49:06.823Z,3.47
2023-02-03T16:51:40.859Z,2.80
2023-02-03T16:54:13.954Z,3.30
2023-02-03T16:56:41.835Z,3.08
2023-02-03T16:59:09.398Z,2.72
2023-02-03T17:01:37.186Z,2.83
2023-02-03T17:04:05.225Z,3.22
2023-02-03T17:06:33.462Z,2.80
2023-02-03T17:09:00.591Z,2.53
2023-02-03T17:11:27.698Z,2.88
2023-02-03T17:13:54.762Z,3.20
2023-02-03T17:16:26.319Z,3.22
2023-02-03T17:18:54.944Z,2.42
2023-02-03T17:21:26.856Z,3.70
2023-02-03T17:23:54.030Z,2.88
2023-02-03T17:26:21.432Z,3.30
2023-02-03T17:28:48.550Z,2.97
2023-02-03T17:31:19.758Z,2.97
2023-02-03T17:36:21.548Z,3.70
2023-02-03T17:55:22.923Z,2.50
2023-02-03T17:57:49.974Z,2.78
2023-02-03T18:00:17.553Z,3.03
2023-02-03T18:02:44.583Z,3.13
2023-02-03T18:05:11.724Z,3.72
2023-02-03T18:07:38.775Z,3.05
2023-02-03T18:10:06.022Z,3.22
2023-02-03T18:12:33.057Z,3.30
2023-02-03T18:15:00.093Z,3.28
2023-02-03T18:17:27.147Z,3.00
2023-02-03T18:19:56.153Z,3.15
2023-02-03T18:22:23.779Z,2.97
2023-02-03T18:24:53.206Z,3.17
2023-02-03T18:27:20.282Z,3.70
2023-02-03T18:29:48.329Z,4.43
2023-02-03T18:32:16.696Z,3.58
2023-02-03T18:34:43.823Z,2.67
2023-02-03T18:37:12.237Z,2.92
2023-02-03T18:39:39.235Z,2.63
2023-02-03T18:42:07.294Z,4.03
2023-02-03T18:44:34.656Z,3.17
2023-02-03T18:47:06.917Z,3.55
2023-02-03T18:49:36.607Z,3.38
2023-02-03T18:52:04.619Z,3.47
2023-02-03T18:54:31.763Z,3.22
2023-02-03T18:56:59.142Z,2.78
2023-02-03T18:59:26.458Z,2.70
2023-02-03T19:01:54.212Z,3.10
2023-02-03T19:04:21.446Z,3.30
2023-02-03T19:06:48.637Z,3.50
2023-02-03T19:09:17.900Z,3.25
2023-02-03T19:11:45.668Z,3.80
2023-02-03T19:14:14.251Z,3.78
2023-02-03T19:16:43.376Z,3.47
2023-02-03T19:19:13.959Z,3.30
2023-02-03T19:21:40.931Z,3.00
2023-02-03T19:24:08.368Z,3.53
2023-02-03T19:26:35.305Z,3.53
2023-02-03T19:29:02.505Z,4.00
2023-02-03T19:31:29.709Z,3.80
2023-02-03T19:33:59.991Z,3.65
2023-02-03T19:36:30.789Z,3.58
2023-02-03T19:38:57.884Z,4.38
2023-02-03T19:41:27.672Z,4.15
2023-02-03T19:43:54.668Z,3.33
2023-02-03T19:46:22.228Z,3.78
2023-02-03T19:48:50.453Z,3.70
2023-02-03T19:51:17.901Z,3.13
2023-02-03T19:53:44.842Z,3.10
2023-02-03T19:56:13.098Z,3.15
2023-02-03T19:58:40.113Z,3.20
2023-02-03T20:01:07.084Z,3.50
2023-02-03T20:03:34.135Z,4.63
2023-02-03T20:06:01.362Z,3.22
2023-02-03T20:08:28.548Z,3.85
2023-02-03T20:10:55.560Z,3.78
2023-02-03T20:13:22.628Z,3.92
2023-02-03T20:15:49.605Z,3.90
2023-02-03T20:18:16.691Z,3.85
2023-02-03T20:20:43.744Z,4.53
2023-02-03T20:23:10.770Z,4.40
2023-02-03T20:25:37.773Z,3.78
2023-02-03T20:28:05.313Z,3.78
2023-02-03T20:30:32.718Z,3.60
2023-02-03T20:33:00.073Z,3.50
2023-02-03T20:35:27.656Z,3.65
2023-02-03T20:37:54.758Z,4.05
2023-02-03T20:40:24.190Z,3.50
2023-02-03T20:42:53.018Z,3.58
2023-02-03T20:45:23.847Z,3.55
2023-02-03T20:47:53.976Z,4.20
2023-02-03T20:50:31.577Z,3.65
2023-02-03T20:53:12.847Z,3.83
2023-02-03T20:55:39.818Z,3.45
2023-02-03T20:58:19.472Z,2.72
2023-02-03T21:00:47.463Z,3.97
2023-02-03T21:03:35.858Z,4.65
2023-02-03T21:06:12.989Z,3.75
2023-02-03T21:08:40.128Z,4.05
2023-02-03T21:11:14.495Z,3.75
2023-02-03T21:13:43.649Z,4.03
2023-02-03T21:16:21.115Z,4.20
2023-02-03T21:19:02.180Z,4.13
2023-02-03T21:21:42.083Z,3.40
2023-02-03T21:24:36.680Z,3.65
2023-02-03T21:27:30.609Z,3.88
2023-02-03T21:30:01.869Z,3.22
2023-02-03T21:32:47.023Z,4.20
2023-02-03T21:35:34.697Z,4.45
2023-02-03T21:38:18.367Z,3.88
2023-02-03T21:40:45.274Z,3.92
2023-02-03T21:43:18.077Z,3.70
2023-02-03T21:45:45.309Z,4.50
2023-02-03T21:48:34.376Z,4.25
2023-02-03T21:51:23.718Z,4.22
2023-02-03T21:53:58.060Z,5.57
2023-02-03T21:56:39.978Z,3.67
2023-02-03T21:59:17.359Z,4.03
2023-02-03T22:01:45.031Z,4.00
2023-02-03T22:04:12.004Z,4.10
2023-02-03T22:06:50.497Z,3.88
2023-02-03T22:09:20.861Z,3.13
2023-02-03T22:11:48.760Z,4.03
2023-02-03T22:14:18.285Z,3.80
2023-02-03T22:16:45.350Z,3.47
2023-02-03T22:19:13.059Z,3.22
2023-02-03T22:21:40.144Z,3.70
2023-02-03T22:24:07.305Z,3.17
2023-02-03T22:26:34.274Z,3.80
2023-02-03T22:29:02.265Z,3.45
2023-02-03T22:31:29.611Z,3.90
2023-02-03T22:33:56.674Z,3.28
2023-02-03T22:36:23.750Z,3.58
2023-02-03T22:38:50.989Z,3.30
2023-02-03T22:41:18.342Z,3.40
2023-02-03T22:43:45.532Z,3.65
2023-02-03T22:46:12.606Z,3.90
2023-02-03T22:48:39.563Z,3.85
2023-02-03T22:51:06.665Z,5.60
2023-02-03T22:53:34.719Z,3.85
2023-02-03T22:56:01.961Z,4.03
2023-02-03T22:58:28.898Z,4.20
2023-02-03T23:00:55.863Z,3.65
2023-02-03T23:03:23.074Z,3.50
2023-02-03T23:05:50.089Z,4.10
2023-02-03T23:08:17.080Z,3.70
2023-02-03T23:10:44.072Z,3.60
2023-02-03T23:13:11.051Z,4.25
2023-02-03T23:15:38.080Z,3.75
2023-02-03T23:18:05.060Z,4.63
2023-02-03T23:20:32.638Z,5.28
2023-02-03T23:22:59.651Z,4.28
2023-02-03T23:25:26.598Z,4.40
2023-02-03T23:27:53.632Z,3.60
2023-02-03T23:30:20.639Z,4.63
2023-02-03T23:32:49.554Z,3.45
2023-02-03T23:35:34.994Z,3.10
2023-02-03T23:38:02.037Z,3.20
2023-02-03T23:40:29.497Z,2.97
2023-02-03T23:42:56.695Z,3.70
2023-02-03T23:45:23.696Z,3.00
2023-02-03T23:47:50.669Z,3.10
2023-02-03T23:50:19.077Z,2.67
2023-02-03T23:52:47.274Z,2.45
2023-02-03T23:55:18.531Z,3.25
2023-02-03T23:57:45.828Z,3.65
